Time;durP1;ratioP1;P1;durP2;ratioP2;P2;SDS_P1;SDS_P2;PMS_P1;PMS_P2;Temp;Humidity;BMP_temperature;BMP_pressure;BME280_temperature;BME280_humidity;BME280_pressure;Samples;Min_cycle;Max_cycle;Signal;HPM_P1;HPM_P2
2023/12/26 00:02:20;;;;;;;5.80;4.33;;;;;;;;;;5063365;27;89068;-62
2023/12/26 00:04:50;;;;;;;8.70;4.87;;;;;;;;;;5062524;27;90575;-62
2023/12/26 00:07:18;;;;;;;7.33;4.03;;;;;;;;;;5058629;27;87849;-62
2023/12/26 00:09:47;;;;;;;5.20;3.60;;;;;;;;;;5074750;27;89726;-62
2023/12/26 00:12:15;;;;;;;6.03;3.77;;;;;;;;;;5063140;27;88044;-62
2023/12/26 00:14:43;;;;;;;7.17;4.03;;;;;;;;;;5062077;27;87578;-62
2023/12/26 00:17:12;;;;;;;4.67;3.37;;;;;;;;;;5064477;27;87630;-62
2023/12/26 00:19:40;;;;;;;4.87;3.17;;;;;;;;;;5064842;27;88630;-62
2023/12/26 00:22:11;;;;;;;4.93;3.43;;;;;;;;;;5062440;27;88067;-62
2023/12/26 00:24:39;;;;;;;6.77;3.83;;;;;;;;;;5078020;27;87817;-62
2023/12/26 00:27:07;;;;;;;3.27;2.67;;;;;;;;;;5072183;27;87614;-62
2023/12/26 00:29:36;;;;;;;5.73;3.57;;;;;;;;;;5069872;27;89640;-62
2023/12/26 00:32:05;;;;;;;5.07;3.43;;;;;;;;;;5058937;27;89876;-62
2023/12/26 00:34:33;;;;;;;5.80;3.07;;;;;;;;;;5070954;27;89716;-62
2023/12/26 00:37:01;;;;;;;4.37;2.97;;;;;;;;;;5080551;27;87359;-62
2023/12/26 00:39:31;;;;;;;4.47;3.03;;;;;;;;;;5070028;27;89677;-62
2023/12/26 00:41:59;;;;;;;3.83;2.60;;;;;;;;;;5073533;27;89052;-62
2023/12/26 00:44:28;;;;;;;7.83;3.37;;;;;;;;;;5065000;27;87724;-62
2023/12/26 00:46:57;;;;;;;4.63;2.97;;;;;;;;;;5074930;27;87620;-62
2023/12/26 00:49:25;;;;;;;4.67;3.10;;;;;;;;;;5066915;27;88772;-62
2023/12/26 00:51:54;;;;;;;3.37;2.43;;;;;;;;;;5077588;27;87937;-62
2023/12/26 00:54:22;;;;;;;4.97;3.27;;;;;;;;;;5076249;27;88793;-62
2023/12/26 00:56:52;;;;;;;4.97;2.77;;;;;;;;;;5055096;27;87914;-62
2023/12/26 00:59:20;;;;;;;5.37;2.57;;;;;;;;;;5071560;27;89975;-62
2023/12/26 01:01:49;;;;;;;4.43;2.90;;;;;;;;;;5077271;27;87816;-62
2023/12/26 01:04:19;;;;;;;4.00;2.60;;;;;;;;;;5063818;27;88742;-62
2023/12/26 01:06:47;;;;;;;5.57;2.47;;;;;;;;;;5071587;27;87443;-62
2023/12/26 01:09:16;;;;;;;2.93;2.47;;;;;;;;;;5070473;27;89654;-62
2023/12/26 01:11:44;;;;;;;6.20;2.60;;;;;;;;;;5062392;27;89302;-62
2023/12/26 01:14:14;;;;;;;3.30;2.13;;;;;;;;;;5052718;27;88970;-62
2023/12/26 01:16:45;;;;;;;3.23;2.30;;;;;;;;;;5076824;27;87447;-62
2023/12/26 01:19:13;;;;;;;3.93;2.57;;;;;;;;;;5061254;27;88713;-62
2023/12/26 01:21:42;;;;;;;4.73;2.67;;;;;;;;;;5060848;27;90134;-62
2023/12/26 01:24:10;;;;;;;2.70;2.20;;;;;;;;;;5078472;27;89719;-62
2023/12/26 01:26:39;;;;;;;4.73;1.80;;;;;;;;;;5066970;27;88180;-62
2023/12/26 01:29:07;;;;;;;3.67;1.87;;;;;;;;;;5072395;27;89898;-62
2023/12/26 01:31:37;;;;;;;2.40;2.20;;;;;;;;;;5065034;27;87906;-62
2023/12/26 01:34:05;;;;;;;3.57;2.17;;;;;;;;;;5078053;27;88819;-62
2023/12/26 01:36:34;;;;;;;3.00;1.90;;;;;;;;;;5066439;27;87657;-61
2023/12/26 01:39:06;;;;;;;4.03;2.03;;;;;;;;;;5073447;27;87291;-62
2023/12/26 01:41:35;;;;;;;7.32;4.13;;;;;;;;;;5071158;27;89277;-62
2023/12/26 01:44:03;;;;;;;10.07;4.57;;;;;;;;;;5068303;27;88875;-62
2023/12/26 01:46:32;;;;;;;6.07;4.20;;;;;;;;;;5060685;27;87951;-62
2023/12/26 01:49:02;;;;;;;6.03;3.83;;;;;;;;;;5060723;27;89829;-62
2023/12/26 01:51:30;;;;;;;5.13;3.80;;;;;;;;;;5061067;27;89032;-62
2023/12/26 01:53:59;;;;;;;7.63;4.03;;;;;;;;;;5061790;27;88718;-62
2023/12/26 01:56:28;;;;;;;5.47;3.17;;;;;;;;;;5061634;27;87679;-62
2023/12/26 01:58:56;;;;;;;6.57;3.20;;;;;;;;;;5060131;27;89786;-62
2023/12/26 02:01:24;;;;;;;4.33;3.50;;;;;;;;;;5061006;27;89061;-62
2023/12/26 02:03:54;;;;;;;2.23;1.90;;;;;;;;;;5057449;27;87695;-62
2023/12/26 02:06:24;;;;;;;5.47;3.30;;;;;;;;;;5060617;27;87569;-62
2023/12/26 02:08:53;;;;;;;5.50;3.43;;;;;;;;;;5060595;27;89600;-63
2023/12/26 02:11:21;;;;;;;7.17;3.70;;;;;;;;;;5060295;27;89774;-62
2023/12/26 02:13:50;;;;;;;4.27;2.60;;;;;;;;;;5060797;27;89757;-63
2023/12/26 02:16:21;;;;;;;3.33;2.77;;;;;;;;;;5060546;27;87504;-62
2023/12/26 02:18:50;;;;;;;3.47;2.83;;;;;;;;;;5061289;27;89640;-62
2023/12/26 02:21:18;;;;;;;5.03;2.80;;;;;;;;;;5060978;27;89045;-63
2023/12/26 02:23:48;;;;;;;4.07;2.40;;;;;;;;;;5060615;27;89050;-62
2023/12/26 02:26:18;;;;;;;3.37;2.40;;;;;;;;;;5060737;27;87504;-62
2023/12/26 02:28:46;;;;;;;3.53;2.40;;;;;;;;;;5060692;27;89683;-63
2023/12/26 02:31:15;;;;;;;2.30;1.73;;;;;;;;;;5060252;27;89044;-63
2023/12/26 02:33:45;;;;;;;6.77;2.17;;;;;;;;;;5060236;27;88966;-63
2023/12/26 02:36:13;;;;;;;2.90;1.80;;;;;;;;;;5060409;27;87874;-63
2023/12/26 02:38:42;;;;;;;3.37;2.07;;;;;;;;;;5060907;27;89751;-63
2023/12/26 02:41:10;;;;;;;3.87;2.60;;;;;;;;;;5061037;27;89261;-62
2023/12/26 02:43:40;;;;;;;2.03;1.83;;;;;;;;;;5060363;27;88793;-63
2023/12/26 02:46:08;;;;;;;3.63;2.63;;;;;;;;;;5060371;27;87698;-63
2023/12/26 02:48:36;;;;;;;1.63;1.50;;;;;;;;;;5060249;27;89691;-63
2023/12/26 02:51:07;;;;;;;6.83;1.73;;;;;;;;;;5059713;27;88872;-63
2023/12/26 02:53:36;;;;;;;1.70;1.50;;;;;;;;;;5060689;27;87628;-63
2023/12/26 02:56:05;;;;;;;2.87;1.70;;;;;;;;;;5060909;27;87658;-63
2023/12/26 02:58:33;;;;;;;3.10;1.67;;;;;;;;;;5060048;27;89648;-63
2023/12/26 03:01:03;;;;;;;2.37;1.73;;;;;;;;;;5058724;27;90240;-63
2023/12/26 03:03:31;;;;;;;3.67;1.70;;;;;;;;;;5060484;27;88676;-62
2023/12/26 03:05:59;;;;;;;2.23;1.80;;;;;;;;;;5060360;27;87589;-63
2023/12/26 03:08:28;;;;;;;4.13;1.70;;;;;;;;;;5076869;27;89817;-63
2023/12/26 03:10:56;;;;;;;2.10;1.20;;;;;;;;;;5084471;27;89187;-63
2023/12/26 03:13:25;;;;;;;1.60;1.40;;;;;;;;;;5084047;27;88904;-63
2023/12/26 03:15:53;;;;;;;4.23;2.00;;;;;;;;;;5065786;27;87552;-63
2023/12/26 03:18:23;;;;;;;1.53;1.37;;;;;;;;;;5063407;27;90059;-63
2023/12/26 03:20:51;;;;;;;1.27;1.17;;;;;;;;;;5063668;27;89079;-63
2023/12/26 03:23:20;;;;;;;4.13;2.00;;;;;;;;;;5063601;27;88429;-63
2023/12/26 03:25:48;;;;;;;4.33;1.27;;;;;;;;;;5063175;27;87980;-63
2023/12/26 03:28:17;;;;;;;1.53;1.10;;;;;;;;;;5063564;27;89613;-63
2023/12/26 03:30:45;;;;;;;1.47;1.03;;;;;;;;;;5064403;27;89196;-63
2023/12/26 03:33:13;;;;;;;1.27;1.17;;;;;;;;;;5063899;27;88923;-63
2023/12/26 03:35:43;;;;;;;3.70;1.50;;;;;;;;;;5063477;27;87449;-63
2023/12/26 03:38:12;;;;;;;1.40;1.17;;;;;;;;;;5063592;27;88395;-63
2023/12/26 03:40:40;;;;;;;2.20;1.10;;;;;;;;;;5063465;27;89033;-63
2023/12/26 03:43:08;;;;;;;3.63;1.63;;;;;;;;;;5063493;27;88721;-63
2023/12/26 03:45:37;;;;;;;1.80;1.37;;;;;;;;;;5062431;27;87651;-63
2023/12/26 03:48:06;;;;;;;1.70;1.40;;;;;;;;;;5063117;27;89824;-63
2023/12/26 03:50:34;;;;;;;1.30;1.20;;;;;;;;;;5062935;27;88994;-63
2023/12/26 03:53:04;;;;;;;2.67;1.40;;;;;;;;;;5063005;27;88675;-63
2023/12/26 03:55:32;;;;;;;1.60;1.30;;;;;;;;;;5064229;27;87586;-63
2023/12/26 03:58:01;;;;;;;2.10;1.20;;;;;;;;;;5062292;27;89693;-63
2023/12/26 04:00:29;;;;;;;1.47;1.13;;;;;;;;;;5062785;27;89169;-63
2023/12/26 04:02:58;;;;;;;1.53;1.33;;;;;;;;;;5062897;27;88747;-63
2023/12/26 04:05:27;;;;;;;0.97;0.93;;;;;;;;;;5063750;27;87451;-63
2023/12/26 04:07:55;;;;;;;0.87;0.87;;;;;;;;;;5063222;27;89852;-63
2023/12/26 04:10:25;;;;;;;1.40;1.30;;;;;;;;;;5063070;27;89147;-63
2023/12/26 04:12:53;;;;;;;3.83;1.03;;;;;;;;;;5062592;27;88926;-63
2023/12/26 04:15:22;;;;;;;1.00;1.00;;;;;;;;;;5062307;27;88097;-63
2023/12/26 04:17:51;;;;;;;0.97;0.80;;;;;;;;;;5062627;27;89608;-63
2023/12/26 04:20:19;;;;;;;2.40;1.00;;;;;;;;;;5062138;27;88552;-63
2023/12/26 04:22:48;;;;;;;0.90;0.70;;;;;;;;;;5062637;27;88894;-63
2023/12/26 04:25:18;;;;;;;0.97;0.90;;;;;;;;;;5062854;27;87546;-63
2023/12/26 04:27:47;;;;;;;1.53;0.90;;;;;;;;;;5062118;27;89475;-63
2023/12/26 04:30:17;;;;;;;1.57;0.60;;;;;;;;;;5061820;27;89052;-63
2023/12/26 04:32:45;;;;;;;1.70;0.93;;;;;;;;;;5062271;27;88894;-63
2023/12/26 04:35:14;;;;;;;0.97;0.83;;;;;;;;;;5062516;27;87598;-63
2023/12/26 04:37:42;;;;;;;1.77;1.10;;;;;;;;;;5063122;27;89687;-63
2023/12/26 04:40:11;;;;;;;1.73;0.70;;;;;;;;;;5062291;27;89963;-63
2023/12/26 04:42:39;;;;;;;1.27;0.60;;;;;;;;;;5062758;27;89743;-63
2023/12/26 04:45:10;;;;;;;0.70;0.60;;;;;;;;;;5062957;27;87641;-63
2023/12/26 04:47:38;;;;;;;0.63;0.63;;;;;;;;;;5062985;27;89610;-63
2023/12/26 04:50:07;;;;;;;0.53;0.50;;;;;;;;;;5048328;27;89097;-63
2023/12/26 04:52:35;;;;;;;0.90;0.87;;;;;;;;;;5042626;28;89164;-63
2023/12/26 04:55:03;;;;;;;2.30;0.60;;;;;;;;;;5042714;28;87617;-63
2023/12/26 04:57:32;;;;;;;1.77;0.77;;;;;;;;;;5042016;28;89754;-63
2023/12/26 05:00:00;;;;;;;0.87;0.80;;;;;;;;;;5050935;27;89128;-63
2023/12/26 05:02:30;;;;;;;1.50;0.73;;;;;;;;;;5061456;27;88875;-63
2023/12/26 05:04:58;;;;;;;0.73;0.73;;;;;;;;;;5061878;27;88009;-63
2023/12/26 05:07:27;;;;;;;0.77;0.67;;;;;;;;;;5060368;27;89731;-63
2023/12/26 05:09:55;;;;;;;2.07;0.70;;;;;;;;;;5066761;27;90068;-64
2023/12/26 05:12:23;;;;;;;0.63;0.57;;;;;;;;;;5071725;27;88752;-65
2023/12/26 05:14:52;;;;;;;2.67;1.00;;;;;;;;;;5061950;27;87646;-62
2023/12/26 05:17:20;;;;;;;1.70;0.90;;;;;;;;;;5060929;27;89765;-62
2023/12/26 05:19:50;;;;;;;1.07;0.87;;;;;;;;;;5061664;27;89214;-63
2023/12/26 05:22:18;;;;;;;2.43;1.00;;;;;;;;;;5062689;27;89030;-64
2023/12/26 05:24:47;;;;;;;1.67;0.90;;;;;;;;;;5062283;27;88350;-61
2023/12/26 05:27:20;;;;;;;0.70;0.50;;;;;;;;;;5060976;27;89618;-63
2023/12/26 05:29:49;;;;;;;0.73;0.50;;;;;;;;;;5061873;27;90175;-63
2023/12/26 05:32:17;;;;;;;0.83;0.83;;;;;;;;;;5061651;27;89871;-64
2023/12/26 05:34:48;;;;;;;4.33;0.77;;;;;;;;;;5061781;27;87481;-62
2023/12/26 05:37:17;;;;;;;0.77;0.60;;;;;;;;;;5061546;27;89691;-63
2023/12/26 05:39:46;;;;;;;1.17;0.60;;;;;;;;;;5060035;27;87966;-64
2023/12/26 05:42:14;;;;;;;1.80;0.77;;;;;;;;;;5061563;27;88790;-63
2023/12/26 05:44:43;;;;;;;3.87;0.70;;;;;;;;;;5061758;27;87860;-62
2023/12/26 05:47:12;;;;;;;4.00;1.03;;;;;;;;;;5061190;27;89652;-61
2023/12/26 05:49:42;;;;;;;2.77;0.93;;;;;;;;;;5061013;27;89075;-64
2023/12/26 05:52:11;;;;;;;1.80;1.40;;;;;;;;;;5061303;27;88833;-62
2023/12/26 05:54:41;;;;;;;1.63;1.07;;;;;;;;;;5061060;27;88000;-62
2023/12/26 05:57:09;;;;;;;3.07;1.47;;;;;;;;;;5061740;27;88531;-62
2023/12/26 05:59:38;;;;;;;1.10;1.00;;;;;;;;;;5061635;27;89170;-62
2023/12/26 06:02:06;;;;;;;5.80;1.40;;;;;;;;;;5061181;27;88699;-62
2023/12/26 06:04:35;;;;;;;1.57;1.47;;;;;;;;;;5061601;27;87613;-62
2023/12/26 06:07:03;;;;;;;2.20;1.43;;;;;;;;;;5061332;27;89619;-62
2023/12/26 06:09:31;;;;;;;1.20;0.90;;;;;;;;;;5060628;27;89258;-62
2023/12/26 06:12:01;;;;;;;2.53;1.10;;;;;;;;;;5041347;28;88740;-62
2023/12/26 06:14:30;;;;;;;1.50;1.40;;;;;;;;;;5041123;28;87636;-62
2023/12/26 06:16:59;;;;;;;2.67;1.40;;;;;;;;;;5041151;28;88542;-62
2023/12/26 06:19:27;;;;;;;3.17;1.40;;;;;;;;;;5050276;27;89950;-62
2023/12/26 06:21:56;;;;;;;1.47;1.17;;;;;;;;;;5061174;27;87298;-62
2023/12/26 06:24:24;;;;;;;1.47;0.90;;;;;;;;;;5061045;27;87607;-62
2023/12/26 06:26:53;;;;;;;4.43;1.20;;;;;;;;;;5060851;27;89764;-62
2023/12/26 06:29:23;;;;;;;2.67;1.30;;;;;;;;;;5059986;27;89173;-62
2023/12/26 06:31:51;;;;;;;4.67;1.47;;;;;;;;;;5060745;27;88804;-62
2023/12/26 06:34:19;;;;;;;1.37;1.27;;;;;;;;;;5059953;27;87508;-63
2023/12/26 06:36:48;;;;;;;2.43;1.40;;;;;;;;;;5060433;27;88592;-62
2023/12/26 06:39:16;;;;;;;3.03;1.30;;;;;;;;;;5060508;27;88193;-62
2023/12/26 06:41:45;;;;;;;3.00;1.53;;;;;;;;;;5059987;27;87731;-62
2023/12/26 06:44:13;;;;;;;1.37;1.17;;;;;;;;;;5059483;27;88309;-62
2023/12/26 06:46:43;;;;;;;1.60;1.33;;;;;;;;;;5060120;27;88543;-63
2023/12/26 06:49:16;;;;;;;2.27;1.30;;;;;;;;;;5060482;27;89195;-62
2023/12/26 06:51:45;;;;;;;1.67;1.40;;;;;;;;;;5060004;27;88790;-62
2023/12/26 06:54:13;;;;;;;1.50;1.40;;;;;;;;;;5060190;27;87459;-62
2023/12/26 06:56:42;;;;;;;1.03;1.03;;;;;;;;;;5060114;27;87467;-62
2023/12/26 06:59:10;;;;;;;4.23;1.47;;;;;;;;;;5059873;27;88004;-62
2023/12/26 07:01:39;;;;;;;1.93;1.73;;;;;;;;;;5059091;27;88796;-62
2023/12/26 07:04:08;;;;;;;1.40;1.30;;;;;;;;;;5060260;27;87491;-62
2023/12/26 07:06:37;;;;;;;2.33;1.30;;;;;;;;;;5059367;27;89597;-63
2023/12/26 07:09:05;;;;;;;2.17;1.57;;;;;;;;;;5059735;27;90029;-62
2023/12/26 07:11:33;;;;;;;1.40;1.30;;;;;;;;;;5060095;27;89936;-64
2023/12/26 07:14:02;;;;;;;5.57;1.63;;;;;;;;;;5059221;27;87649;-64
2023/12/26 07:16:33;;;;;;;3.30;1.60;;;;;;;;;;5058805;27;89625;-64
2023/12/26 07:19:01;;;;;;;2.07;1.67;;;;;;;;;;5059513;27;90981;-64
2023/12/26 07:21:31;;;;;;;1.77;1.57;;;;;;;;;;5059048;27;88728;-64
2023/12/26 07:24:00;;;;;;;2.37;1.30;;;;;;;;;;5059338;27;87635;-63
2023/12/26 07:26:28;;;;;;;1.50;1.40;;;;;;;;;;5059700;27;89731;-64
2023/12/26 07:28:56;;;;;;;1.30;1.20;;;;;;;;;;5058904;27;88628;-63
2023/12/26 07:31:25;;;;;;;1.60;1.50;;;;;;;;;;5059757;27;88847;-63
2023/12/26 07:33:54;;;;;;;1.37;1.27;;;;;;;;;;5059947;27;87898;-63
2023/12/26 07:36:22;;;;;;;1.17;0.93;;;;;;;;;;5058942;27;88559;-63
2023/12/26 07:38:52;;;;;;;3.53;1.57;;;;;;;;;;5059664;27;89069;-63
2023/12/26 07:41:21;;;;;;;1.60;1.13;;;;;;;;;;5059683;27;88793;-63
2023/12/26 07:43:51;;;;;;;1.37;0.90;;;;;;;;;;5060255;27;87744;-63
2023/12/26 07:46:20;;;;;;;3.00;1.63;;;;;;;;;;5058360;27;89989;-63
2023/12/26 07:48:49;;;;;;;4.53;1.70;;;;;;;;;;5050896;27;89641;-63
2023/12/26 07:51:17;;;;;;;1.13;1.03;;;;;;;;;;5058932;27;88765;-66
2023/12/26 07:53:47;;;;;;;3.83;1.70;;;;;;;;;;5059673;27;87471;-65
2023/12/26 07:56:17;;;;;;;3.37;1.47;;;;;;;;;;5059975;27;89519;-65
2023/12/26 07:58:45;;;;;;;1.70;1.20;;;;;;;;;;5062418;27;88077;-65
2023/12/26 08:01:13;;;;;;;2.23;1.37;;;;;;;;;;5062978;27;90862;-66
2023/12/26 08:03:42;;;;;;;3.43;1.83;;;;;;;;;;5063430;27;87656;-62
2023/12/26 08:06:10;;;;;;;1.60;0.93;;;;;;;;;;5062703;27;89692;-62
2023/12/26 08:08:39;;;;;;;4.33;1.63;;;;;;;;;;5058080;27;89277;-63
2023/12/26 08:11:07;;;;;;;2.07;1.53;;;;;;;;;;5062369;27;89044;-63
2023/12/26 08:13:37;;;;;;;1.40;1.30;;;;;;;;;;5061992;27;87185;-63
2023/12/26 08:16:06;;;;;;;1.87;1.10;;;;;;;;;;5061920;27;89663;-63
2023/12/26 08:18:34;;;;;;;6.77;4.23;;;;;;;;;;5061621;27;89368;-63
2023/12/26 08:21:03;;;;;;;3.40;2.37;;;;;;;;;;5057570;27;89349;-62
2023/12/26 08:23:31;;;;;;;3.87;2.07;;;;;;;;;;5062245;27;89508;-62
2023/12/26 08:26:00;;;;;;;3.10;1.90;;;;;;;;;;5061307;27;89573;-63
2023/12/26 08:28:28;;;;;;;3.77;1.60;;;;;;;;;;5060818;27;89081;-63
2023/12/26 08:30:58;;;;;;;3.33;1.77;;;;;;;;;;5072556;27;88814;-62
2023/12/26 08:33:26;;;;;;;2.37;1.50;;;;;;;;;;5061260;27;87785;-62
2023/12/26 08:35:55;;;;;;;3.17;1.53;;;;;;;;;;5060982;27;89683;-62
2023/12/26 08:38:23;;;;;;;1.90;1.70;;;;;;;;;;5061353;27;89321;-62
2023/12/26 08:40:51;;;;;;;4.43;1.97;;;;;;;;;;5056439;27;88725;-62
2023/12/26 08:43:20;;;;;;;3.43;1.80;;;;;;;;;;5073138;27;88430;-63
2023/12/26 08:45:48;;;;;;;2.67;1.63;;;;;;;;;;5062542;27;89788;-62
2023/12/26 08:48:18;;;;;;;1.43;1.20;;;;;;;;;;5062261;27;88920;-62
2023/12/26 08:50:47;;;;;;;2.23;1.43;;;;;;;;;;5062068;27;89896;-62
2023/12/26 08:53:16;;;;;;;2.20;1.40;;;;;;;;;;5061869;27;87559;-61
2023/12/26 08:55:46;;;;;;;2.27;1.27;;;;;;;;;;5056576;27;89869;-62
2023/12/26 08:58:15;;;;;;;2.97;1.43;;;;;;;;;;5038918;28;90919;-62
2023/12/26 09:00:45;;;;;;;2.43;1.20;;;;;;;;;;5038832;28;87459;-62
2023/12/26 09:03:13;;;;;;;2.67;1.60;;;;;;;;;;5045122;27;87671;-61
2023/12/26 09:05:44;;;;;;;2.33;1.20;;;;;;;;;;5059272;27;89666;-61
2023/12/26 09:08:12;;;;;;;1.13;1.03;;;;;;;;;;5059028;27;89832;-61
2023/12/26 09:10:41;;;;;;;4.37;0.90;;;;;;;;;;5058712;27;88986;-61
2023/12/26 09:13:09;;;;;;;2.03;1.30;;;;;;;;;;5059192;27;88023;-61
2023/12/26 09:15:37;;;;;;;2.47;1.40;;;;;;;;;;5058603;27;89598;-61
2023/12/26 09:18:06;;;;;;;1.17;0.90;;;;;;;;;;5058755;27;88989;-61
2023/12/26 09:20:36;;;;;;;13.63;1.43;;;;;;;;;;5059060;27;87718;-61
2023/12/26 09:23:06;;;;;;;2.10;1.17;;;;;;;;;;5058662;27;87676;-61
2023/12/26 09:25:34;;;;;;;2.97;1.13;;;;;;;;;;5058338;27;89726;-61
2023/12/26 09:28:03;;;;;;;2.40;1.17;;;;;;;;;;5058123;27;87808;-61
2023/12/26 09:30:31;;;;;;;1.20;1.10;;;;;;;;;;5057812;27;88842;-61
2023/12/26 09:33:00;;;;;;;1.10;1.10;;;;;;;;;;5058019;27;87847;-62
2023/12/26 09:35:29;;;;;;;3.50;1.07;;;;;;;;;;5058172;27;89424;-62
2023/12/26 09:38:02;;;;;;;1.80;1.50;;;;;;;;;;5057889;27;89994;-61
2023/12/26 09:40:32;;;;;;;1.30;1.00;;;;;;;;;;5058423;27;89800;-61
2023/12/26 09:43:01;;;;;;;2.47;1.40;;;;;;;;;;5058085;27;87591;-61
2023/12/26 09:45:29;;;;;;;2.23;0.90;;;;;;;;;;5057520;27;89902;-62
2023/12/26 09:47:58;;;;;;;1.90;0.87;;;;;;;;;;5058475;27;87974;-62
2023/12/26 09:50:27;;;;;;;3.90;1.60;;;;;;;;;;5057425;27;88885;-61
2023/12/26 09:53:00;;;;;;;1.73;1.00;;;;;;;;;;5055708;27;87669;-62
2023/12/26 09:55:28;;;;;;;1.93;0.70;;;;;;;;;;5054712;27;89260;-61
2023/12/26 09:57:59;;;;;;;1.00;0.90;;;;;;;;;;5058204;27;89078;-62
2023/12/26 10:00:27;;;;;;;1.63;1.53;;;;;;;;;;5057847;27;90977;-62
2023/12/26 10:02:56;;;;;;;0.97;0.90;;;;;;;;;;5058135;27;87919;-62
2023/12/26 10:05:26;;;;;;;8.07;1.30;;;;;;;;;;5058471;27;89667;-61
2023/12/26 10:07:55;;;;;;;2.17;1.17;;;;;;;;;;5057513;27;89151;-61
2023/12/26 10:10:23;;;;;;;1.67;1.43;;;;;;;;;;5057959;27;89189;-62
2023/12/26 10:12:52;;;;;;;5.47;1.67;;;;;;;;;;5056695;27;88038;-61
2023/12/26 10:15:22;;;;;;;2.13;1.10;;;;;;;;;;5057287;27;88392;-64
2023/12/26 10:17:51;;;;;;;0.90;0.90;;;;;;;;;;5057578;27;89297;-63
2023/12/26 10:20:20;;;;;;;2.70;1.73;;;;;;;;;;5057813;27;89003;-64
2023/12/26 10:22:49;;;;;;;3.10;1.50;;;;;;;;;;5058716;27;88375;-63
2023/12/26 10:25:17;;;;;;;3.27;1.53;;;;;;;;;;5057953;27;89631;-64
2023/12/26 10:27:54;;;;;;;3.90;1.60;;;;;;;;;;5057680;27;90038;-63
2023/12/26 10:30:24;;;;;;;1.20;1.10;;;;;;;;;;5070464;27;89781;-64
2023/12/26 10:32:59;;;;;;;2.37;1.57;;;;;;;;;;5068632;27;87601;-63
2023/12/26 10:35:28;;;;;;;2.37;1.73;;;;;;;;;;5059153;27;91074;-65
2023/12/26 10:37:57;;;;;;;4.30;1.50;;;;;;;;;;5065929;27;89132;-64
2023/12/26 10:40:26;;;;;;;3.90;1.73;;;;;;;;;;5062416;27;88864;-64
2023/12/26 10:42:54;;;;;;;1.10;1.00;;;;;;;;;;5054276;27;87540;-65
2023/12/26 10:45:24;;;;;;;1.73;1.57;;;;;;;;;;5068959;27;89422;-64
2023/12/26 10:47:53;;;;;;;2.30;1.70;;;;;;;;;;5056909;27;89085;-64
2023/12/26 10:50:22;;;;;;;3.57;1.73;;;;;;;;;;5070301;27;88823;-65
2023/12/26 10:53:06;;;;;;;2.50;1.37;;;;;;;;;;5057088;27;87946;-67
2023/12/26 10:55:34;;;;;;;1.90;1.57;;;;;;;;;;5049490;27;91607;-65
2023/12/26 10:58:19;;;;;;;2.30;1.80;;;;;;;;;;5067794;27;89174;-65
2023/12/26 13:53:33;;;;;;;547.60;271.03;;;;;;;;;;5051023;27;87741;-65
2023/12/26 13:56:19;;;;;;;970.80;518.03;;;;;;;;;;5055684;27;88014;-66
2023/12/26 13:59:06;;;;;;;989.93;579.20;;;;;;;;;;5044481;27;89648;-66
2023/12/26 14:01:52;;;;;;;977.30;562.97;;;;;;;;;;5067355;27;89156;-73
2023/12/26 14:04:40;;;;;;;683.07;395.67;;;;;;;;;;5074355;27;88726;-66
2023/12/26 14:07:27;;;;;;;484.77;254.63;;;;;;;;;;5056840;27;87664;-66
2023/12/26 14:10:15;;;;;;;380.13;178.10;;;;;;;;;;5064582;27;89599;-68
2023/12/26 14:13:03;;;;;;;331.13;144.80;;;;;;;;;;5074245;27;88880;-68
2023/12/26 14:15:50;;;;;;;220.57;103.03;;;;;;;;;;5067117;27;89064;-65
2023/12/26 14:18:38;;;;;;;167.60;79.80;;;;;;;;;;5059960;27;87574;-66
2023/12/26 14:21:26;;;;;;;103.13;51.70;;;;;;;;;;5052695;27;88977;-67
2023/12/26 14:24:13;;;;;;;101.80;45.50;;;;;;;;;;5061750;27;90019;-65
2023/12/26 14:27:08;;;;;;;58.57;33.10;;;;;;;;;;5071524;27;90044;-67
2023/12/26 14:29:55;;;;;;;47.57;24.20;;;;;;;;;;5050541;27;87766;-67
2023/12/26 14:32:42;;;;;;;38.37;20.97;;;;;;;;;;5057463;27;88191;-67
2023/12/26 14:35:29;;;;;;;41.83;17.50;;;;;;;;;;5056356;27;89405;-65
2023/12/26 14:38:18;;;;;;;24.63;13.33;;;;;;;;;;5053734;27;89048;-66
2023/12/26 14:41:05;;;;;;;30.07;12.13;;;;;;;;;;5057620;27;87701;-65
2023/12/26 14:43:54;;;;;;;11.67;8.73;;;;;;;;;;5056866;27;89455;-65
2023/12/26 14:46:43;;;;;;;16.53;8.33;;;;;;;;;;5054175;27;89103;-67
2023/12/26 14:49:30;;;;;;;17.23;9.10;;;;;;;;;;5053663;27;88964;-64
2023/12/26 14:52:17;;;;;;;30.17;13.40;;;;;;;;;;5054069;27;88191;-65
2023/12/26 14:55:06;;;;;;;35.93;15.07;;;;;;;;;;5052904;27;89758;-66
2023/12/26 14:57:53;;;;;;;42.13;10.97;;;;;;;;;;5054694;27;88125;-66
2023/12/26 15:00:40;;;;;;;27.33;11.57;;;;;;;;;;5053251;27;89057;-65
2023/12/26 15:03:11;;;;;;;22.43;8.63;;;;;;;;;;5052768;27;87727;-63
2023/12/26 15:05:42;;;;;;;15.80;6.90;;;;;;;;;;5057963;27;89727;-66
2023/12/26 15:08:11;;;;;;;11.47;5.53;;;;;;;;;;5059681;27;89146;-66
2023/12/26 15:10:40;;;;;;;7.73;5.10;;;;;;;;;;5060055;27;87596;-69
2023/12/26 15:13:09;;;;;;;18.37;4.93;;;;;;;;;;5059734;27;87679;-74
2023/12/26 15:15:37;;;;;;;5.97;3.43;;;;;;;;;;5059586;27;89588;-73
2023/12/26 15:18:07;;;;;;;7.57;3.07;;;;;;;;;;5059215;27;89055;-68
2023/12/26 15:20:43;;;;;;;16.17;3.03;;;;;;;;;;5058750;27;89914;-69
2023/12/26 15:23:15;;;;;;;9.20;4.17;;;;;;;;;;5059913;27;88127;-71
2023/12/26 15:25:43;;;;;;;7.97;3.27;;;;;;;;;;5065351;27;89705;-68
2023/12/26 15:28:11;;;;;;;9.43;3.50;;;;;;;;;;5070240;27;88111;-70
2023/12/26 15:30:40;;;;;;;3.10;2.07;;;;;;;;;;5061411;27;88783;-71
2023/12/26 15:33:10;;;;;;;5.37;3.40;;;;;;;;;;5063688;27;87686;-68
2023/12/26 15:35:40;;;;;;;5.43;3.00;;;;;;;;;;5060009;27;89828;-69
2023/12/26 15:38:09;;;;;;;5.47;2.70;;;;;;;;;;5060246;27;88147;-68
2023/12/26 15:40:37;;;;;;;5.87;2.87;;;;;;;;;;5060092;27;89427;-71
2023/12/26 15:43:05;;;;;;;4.40;2.50;;;;;;;;;;5058939;27;88029;-72
2023/12/26 15:45:34;;;;;;;4.10;3.30;;;;;;;;;;5077834;27;90741;-71
2023/12/26 15:48:05;;;;;;;10.57;3.10;;;;;;;;;;5080424;27;89119;-72
2023/12/26 15:50:34;;;;;;;5.83;3.17;;;;;;;;;;5081066;27;88671;-72
2023/12/26 15:53:06;;;;;;;4.97;2.30;;;;;;;;;;5080417;27;87606;-71
2023/12/26 15:55:35;;;;;;;4.90;3.20;;;;;;;;;;5080721;27;89662;-70
2023/12/26 15:58:05;;;;;;;5.33;2.70;;;;;;;;;;5062376;27;89203;-70
2023/12/26 16:00:34;;;;;;;5.63;2.93;;;;;;;;;;5059708;27;90316;-70
2023/12/26 16:03:04;;;;;;;3.97;2.30;;;;;;;;;;5060445;27;87604;-72
2023/12/26 16:05:38;;;;;;;4.17;2.30;;;;;;;;;;5055151;27;89305;-71
2023/12/26 16:08:10;;;;;;;4.53;2.90;;;;;;;;;;5038825;28;90213;-70
2023/12/26 16:10:40;;;;;;;5.07;2.60;;;;;;;;;;5038969;28;89894;-69
2023/12/26 16:13:11;;;;;;;7.70;2.93;;;;;;;;;;5053459;27;87578;-70
2023/12/26 16:15:40;;;;;;;7.50;4.00;;;;;;;;;;5059862;27;89584;-71
2023/12/26 16:18:10;;;;;;;98.00;27.40;;;;;;;;;;5058887;27;89596;-71
2023/12/26 16:20:44;;;;;;;156.97;45.50;;;;;;;;;;5059859;27;89078;-72
2023/12/26 16:23:14;;;;;;;50.50;24.00;;;;;;;;;;5060037;27;87631;-70
2023/12/26 16:25:45;;;;;;;36.27;18.83;;;;;;;;;;5049273;27;89736;-69
2023/12/26 16:28:14;;;;;;;155.00;36.60;;;;;;;;;;5050400;27;89182;-69
2023/12/26 16:30:45;;;;;;;120.47;32.20;;;;;;;;;;5050329;27;88988;-73
2023/12/26 16:33:13;;;;;;;101.13;27.20;;;;;;;;;;5053920;27;87962;-73
2023/12/26 16:35:42;;;;;;;97.30;25.40;;;;;;;;;;5058558;27;89506;-73
2023/12/26 16:38:15;;;;;;;75.97;22.87;;;;;;;;;;5058704;27;87963;-71
2023/12/26 16:40:43;;;;;;;69.97;21.43;;;;;;;;;;5059701;27;89595;-74
2023/12/26 16:43:13;;;;;;;71.37;17.93;;;;;;;;;;5059224;27;87890;-73
2023/12/26 16:45:44;;;;;;;57.87;15.90;;;;;;;;;;5057940;27;88919;-74
2023/12/26 16:48:14;;;;;;;56.97;14.87;;;;;;;;;;5067744;27;87858;-73
2023/12/26 16:50:42;;;;;;;44.33;12.10;;;;;;;;;;5069963;27;88889;-73
2023/12/26 16:53:10;;;;;;;35.00;10.97;;;;;;;;;;5079932;27;87681;-73
2023/12/26 16:55:40;;;;;;;32.23;9.67;;;;;;;;;;5062953;27;92826;-73
2023/12/26 16:58:09;;;;;;;26.33;9.70;;;;;;;;;;5059276;27;90071;-73
2023/12/26 17:00:40;;;;;;;32.60;8.67;;;;;;;;;;5057378;27;90044;-73
2023/12/26 17:03:10;;;;;;;21.97;7.20;;;;;;;;;;5072357;27;87562;-73
2023/12/26 17:05:39;;;;;;;15.90;6.43;;;;;;;;;;5058569;27;90456;-74
2023/12/26 17:08:08;;;;;;;20.07;5.87;;;;;;;;;;5059494;27;91331;-74
2023/12/26 17:10:36;;;;;;;21.50;6.43;;;;;;;;;;5059222;27;88780;-74
2023/12/26 17:13:09;;;;;;;16.67;4.70;;;;;;;;;;5058644;27;87595;-72
2023/12/26 17:15:38;;;;;;;17.23;4.73;;;;;;;;;;5059789;27;89585;-72
2023/12/26 17:18:07;;;;;;;11.87;4.30;;;;;;;;;;5079579;27;89076;-72
2023/12/26 17:20:36;;;;;;;15.53;4.53;;;;;;;;;;5073927;27;89345;-72
2023/12/26 17:23:05;;;;;;;14.50;3.53;;;;;;;;;;5078642;27;87854;-72
2023/12/26 17:25:36;;;;;;;7.20;3.03;;;;;;;;;;5079572;27;88722;-72
2023/12/26 17:28:09;;;;;;;6.30;2.60;;;;;;;;;;5079105;27;89552;-72
2023/12/26 17:30:37;;;;;;;8.07;2.20;;;;;;;;;;5079264;27;89145;-72
2023/12/26 17:33:06;;;;;;;4.87;2.57;;;;;;;;;;5079531;27;87579;-72
2023/12/26 17:35:39;;;;;;;4.63;2.10;;;;;;;;;;5045252;27;88328;-70
2023/12/26 17:38:07;;;;;;;5.00;1.90;;;;;;;;;;5044245;27;87921;-70
2023/12/26 17:40:42;;;;;;;3.77;2.47;;;;;;;;;;5059376;27;89025;-71
2023/12/26 17:43:13;;;;;;;4.10;1.90;;;;;;;;;;5057722;27;87576;-73
2023/12/26 17:45:44;;;;;;;3.13;1.67;;;;;;;;;;5074459;27;90349;-72
2023/12/26 17:48:16;;;;;;;7.23;2.03;;;;;;;;;;5077819;27;90043;-73
2023/12/26 17:50:46;;;;;;;6.37;1.90;;;;;;;;;;5078950;27;89804;-73